createdAt,value
2023-02-19T00:00:26.243Z,100103.69
2023-02-19T00:02:58.821Z,100101.94
2023-02-19T00:05:30.455Z,100102.99
2023-02-19T00:08:01.545Z,100101.61
2023-02-19T00:10:32.052Z,100104.20
2023-02-19T00:13:02.441Z,100102.13
2023-02-19T00:15:34.456Z,100101.95
2023-02-19T00:18:08.448Z,100102.11
2023-02-19T00:20:38.791Z,100101.94
2023-02-19T00:23:09.108Z,100101.41
2023-02-19T00:25:41.664Z,100098.12
2023-02-19T00:28:12.743Z,100098.48
2023-02-19T00:30:45.078Z,100096.04
2023-02-19T00:33:16.709Z,100090.30
2023-02-19T00:35:48.248Z,100085.27
2023-02-19T00:38:19.285Z,100085.26
2023-02-19T00:40:50.196Z,100088.39
2023-02-19T00:43:24.258Z,100094.83
2023-02-19T00:45:56.676Z,100093.96
2023-02-19T00:48:27.455Z,100089.62
2023-02-19T00:50:58.640Z,100090.66
2023-02-19T00:53:29.185Z,100085.80
2023-02-19T00:55:59.771Z,100079.39
2023-02-19T00:58:30.162Z,100079.89
2023-02-19T01:01:04.362Z,100073.47
2023-02-19T01:03:38.582Z,100070.34
2023-02-19T01:06:11.834Z,100066.86
2023-02-19T01:08:43.142Z,100062.88
2023-02-19T01:11:17.595Z,100058.02
2023-02-19T01:13:48.462Z,100052.45
2023-02-19T01:16:22.296Z,100052.81
2023-02-19T01:18:55.417Z,100048.99
2023-02-19T01:21:27.576Z,100049.86
2023-02-19T01:23:59.081Z,100054.22
2023-02-19T01:26:32.826Z,100051.79
2023-02-19T01:29:03.699Z,100047.44
2023-02-19T01:31:37.206Z,100046.92
2023-02-19T01:34:11.227Z,100041.19
2023-02-19T01:36:49.051Z,100039.80
2023-02-19T01:39:20.382Z,100037.89
2023-02-19T01:41:50.787Z,100044.49
2023-02-19T01:44:56.434Z,100044.66
2023-02-19T01:47:26.944Z,100041.19
2023-02-19T01:49:59.398Z,100037.38
2023-02-19T01:52:33.578Z,100029.91
2023-02-19T01:55:11.092Z,100016.19
2023-02-19T01:57:46.418Z,100010.80
2023-02-19T02:00:23.581Z,100007.66
2023-02-19T02:02:59.274Z,100006.98
2023-02-19T02:05:44.955Z,99997.25
2023-02-19T02:08:33.947Z,99996.39
2023-02-19T02:11:05.088Z,99991.70
2023-02-19T02:13:37.999Z,99987.34
2023-02-19T02:16:23.271Z,99992.04
2023-02-19T02:19:06.782Z,99977.10
2023-02-19T02:22:00.293Z,99977.64
2023-02-19T02:24:58.727Z,99972.25
2023-02-19T02:27:44.204Z,99965.98
2023-02-19T02:30:30.567Z,99962.84
2023-02-19T02:33:09.135Z,99963.37
2023-02-19T02:35:46.080Z,99964.58
2023-02-19T02:38:19.504Z,99969.60
2023-02-19T02:40:50.690Z,99968.74
2023-02-19T02:43:22.050Z,99968.22
2023-02-19T02:45:52.470Z,99966.31
2023-02-19T02:48:40.988Z,99959.02
2023-02-19T02:51:22.382Z,99956.07
2023-02-19T02:54:24.007Z,99957.46
2023-02-19T02:56:56.209Z,99955.73
2023-02-19T02:59:29.851Z,99950.87
2023-02-19T03:02:15.113Z,99951.55
2023-02-19T03:05:11.907Z,99954.33
2023-02-19T03:07:54.670Z,99950.50
2023-02-19T03:10:32.675Z,99947.90
2023-02-19T03:13:26.167Z,99945.64
2023-02-19T03:16:15.269Z,99944.60
2023-02-19T03:19:08.887Z,99942.86
2023-02-19T03:21:43.150Z,99942.35
2023-02-19T03:24:33.485Z,99944.08
2023-02-19T03:27:08.674Z,99946.67
2023-02-19T03:29:44.657Z,99937.80
2023-02-19T03:32:20.824Z,99936.42
2023-02-19T03:34:58.208Z,99925.83
2023-02-19T03:37:33.729Z,99911.05
2023-02-19T03:40:04.749Z,99907.23
2023-02-19T03:42:43.152Z,99907.41
2023-02-19T03:45:37.476Z,99898.40
2023-02-19T03:48:25.486Z,99903.63
2023-02-19T03:51:05.377Z,99901.19
2023-02-19T03:53:46.233Z,99902.41
2023-02-19T03:56:26.711Z,99904.65
2023-02-19T03:59:02.490Z,99911.44
2023-02-19T04:01:42.625Z,99913.88
2023-02-19T04:04:21.229Z,99916.83
2023-02-19T04:06:55.469Z,99909.88
2023-02-19T04:09:32.312Z,99905.86
2023-02-19T04:12:09.444Z,99905.52
2023-02-19T04:14:44.691Z,99902.20
2023-02-19T04:17:21.086Z,99906.36
2023-02-19T04:19:54.726Z,99907.59
2023-02-19T04:22:26.797Z,99903.24
2023-02-19T04:24:57.678Z,99910.37
2023-02-19T04:27:33.830Z,99905.67
2023-02-19T04:30:04.613Z,99903.77
2023-02-19T04:32:38.493Z,99900.99
2023-02-19T04:35:09.816Z,99901.34
2023-02-19T04:37:40.099Z,99906.20
2023-02-19T04:40:12.342Z,99900.65
2023-02-19T04:42:43.711Z,99896.30
2023-02-19T04:45:16.813Z,99895.95
2023-02-19T04:47:47.181Z,99895.95
2023-02-19T04:50:17.792Z,99891.80
2023-02-19T04:52:48.136Z,99893.36
2023-02-19T04:55:19.522Z,99887.80
2023-02-19T04:57:49.874Z,99884.50
2023-02-19T05:00:22.765Z,99883.11
2023-02-19T05:02:55.367Z,99879.30
2023-02-19T05:05:26.837Z,99879.11
2023-02-19T05:07:57.195Z,99874.09
2023-02-19T05:10:27.729Z,99878.44
2023-02-19T05:12:58.879Z,99874.63
2023-02-19T05:15:30.381Z,99876.19
2023-02-19T05:18:01.966Z,99876.36
2023-02-19T05:20:32.410Z,99866.64
2023-02-19T05:23:02.799Z,99869.42
2023-02-19T05:25:33.886Z,99871.31
2023-02-19T05:28:17.849Z,99870.98
2023-02-19T05:30:50.491Z,99867.85
2023-02-19T05:33:23.649Z,99867.50
2023-02-19T05:35:56.006Z,99860.73
2023-02-19T05:38:26.863Z,99857.27
2023-02-19T05:41:04.694Z,99857.09
2023-02-19T05:43:38.061Z,99856.23
2023-02-19T05:46:11.724Z,99857.98
2023-02-19T05:48:45.156Z,99860.74
2023-02-19T05:51:16.882Z,99857.27
2023-02-19T05:53:51.365Z,99857.98
2023-02-19T05:56:28.950Z,99857.11
2023-02-19T05:59:00.131Z,99856.59
2023-02-19T06:01:31.555Z,99858.69
2023-02-19T06:04:02.282Z,99854.17
2023-02-19T06:06:32.654Z,99856.27
2023-02-19T06:09:05.124Z,99859.02
2023-02-19T06:11:35.739Z,99861.80
2023-02-19T06:14:06.532Z,99857.30
2023-02-19T06:16:36.901Z,99863.91
2023-02-19T06:19:07.337Z,99859.90
2023-02-19T06:21:37.837Z,99865.98
2023-02-19T06:24:10.078Z,99862.52
2023-02-19T06:26:41.551Z,99866.86
2023-02-19T06:29:12.036Z,99872.60
2023-02-19T06:31:43.013Z,99874.51
2023-02-19T06:34:13.862Z,99879.03
2023-02-19T06:36:44.657Z,99875.73
2023-02-19T06:39:15.076Z,99875.90
2023-02-19T06:41:45.570Z,99877.29
2023-02-19T06:44:15.974Z,99880.60
2023-02-19T06:46:46.762Z,99882.86
2023-02-19T06:49:17.517Z,99885.64
2023-02-19T06:51:47.863Z,99884.25
2023-02-19T06:54:19.795Z,99885.99
2023-02-19T06:56:51.683Z,99882.16
2023-02-19T06:59:22.154Z,99883.91
2023-02-19T07:01:54.932Z,99886.86
2023-02-19T07:04:27.062Z,99893.11
2023-02-19T07:07:02.021Z,99901.11
2023-02-19T07:09:34.592Z,99902.68
2023-02-19T07:12:05.246Z,99909.29
2023-02-19T07:14:37.613Z,99921.95
2023-02-19T07:17:07.977Z,99923.70
2023-02-19T07:19:38.388Z,99929.61
2023-02-19T07:22:16.083Z,99938.30
2023-02-19T07:24:48.635Z,99939.18
2023-02-19T07:27:19.103Z,99942.83
2023-02-19T07:29:50.869Z,99944.03
2023-02-19T07:32:21.237Z,99949.05
2023-02-19T07:34:51.613Z,99956.16
2023-02-19T07:37:22.165Z,99957.02
2023-02-19T07:39:54.311Z,99958.75
2023-02-19T07:42:25.097Z,99963.08
2023-02-19T07:44:58.445Z,99963.94
2023-02-19T07:47:31.450Z,99972.07
2023-02-19T07:50:01.860Z,99977.79
2023-02-19T07:52:52.325Z,99985.74
2023-02-19T07:55:31.044Z,99996.13
2023-02-19T07:58:04.745Z,100000.45
2023-02-19T08:00:36.267Z,100008.42
2023-02-19T08:03:07.085Z,100011.34
2023-02-19T08:05:41.390Z,100013.40
2023-02-19T08:08:14.249Z,100011.62
2023-02-19T08:11:02.530Z,100024.75
2023-02-19T08:13:34.241Z,100024.02
2023-02-19T08:16:24.387Z,100027.46
2023-02-19T08:19:05.010Z,100036.58
2023-02-19T08:21:36.248Z,100040.89
2023-02-19T08:24:09.326Z,100047.08
2023-02-19T08:26:44.559Z,100053.95
2023-02-19T08:29:15.015Z,100056.50
2023-02-19T08:31:48.155Z,100064.58
2023-02-19T08:34:18.830Z,100067.31
2023-02-19T08:36:53.123Z,100071.09
2023-02-19T08:39:24.673Z,100076.11
2023-02-19T08:41:55.402Z,100077.50
2023-02-19T08:44:26.785Z,100075.58
2023-02-19T08:46:59.514Z,100084.25
2023-02-19T08:49:33.778Z,100082.36
2023-02-19T08:52:07.730Z,100087.55
2023-02-19T08:54:46.748Z,100092.05
2023-02-19T08:57:17.746Z,100097.89
2023-02-19T08:59:52.341Z,100097.67
2023-02-19T09:02:27.300Z,100102.45
2023-02-19T09:04:58.498Z,100111.42
2023-02-19T09:07:29.206Z,100119.83
2023-02-19T09:09:59.758Z,100126.55
2023-02-19T09:12:30.089Z,100130.04
2023-02-19T09:15:00.669Z,100132.45
2023-02-19T09:17:31.180Z,100138.35
2023-02-19T09:20:01.639Z,100137.70
2023-02-19T09:22:32.393Z,100141.83
2023-02-19T09:25:02.930Z,100146.36
2023-02-19T09:27:33.737Z,100150.08
2023-02-19T09:30:04.778Z,100151.71
2023-02-19T09:32:35.514Z,100155.58
2023-02-19T09:35:06.348Z,100157.54
2023-02-19T09:37:37.036Z,100164.55
2023-02-19T09:42:53.650Z,100171.20
2023-02-19T09:45:29.867Z,100171.60
2023-02-19T09:48:00.772Z,100177.38
2023-02-19T09:50:38.461Z,100178.84
2023-02-19T09:53:16.854Z,100174.77
2023-02-19T09:55:47.834Z,100179.90
2023-02-19T09:58:27.386Z,100187.02
2023-02-19T10:01:01.300Z,100189.47
2023-02-19T10:03:35.463Z,100196.79
2023-02-19T10:06:16.662Z,100199.40
2023-02-19T10:08:48.944Z,100207.20
2023-02-19T10:11:20.559Z,100210.04
2023-02-19T10:14:02.980Z,100213.89
2023-02-19T10:16:37.400Z,100222.78
2023-02-19T10:19:10.512Z,100226.11
2023-02-19T10:21:41.341Z,100233.77
2023-02-19T10:24:19.672Z,100238.95
2023-02-19T10:26:50.783Z,100242.91
2023-02-19T10:29:29.418Z,100243.25
2023-02-19T10:32:21.157Z,100250.07
2023-02-19T10:35:10.329Z,100255.80
2023-02-19T10:37:47.266Z,100262.42
2023-02-19T10:40:24.015Z,100261.54
2023-02-19T10:42:58.921Z,100265.31
2023-02-19T10:45:35.158Z,100264.95
2023-02-19T10:48:09.788Z,100267.52
2023-02-19T10:50:44.962Z,100265.58
2023-02-19T10:53:26.637Z,100264.20
2023-02-19T10:56:10.202Z,100271.39
2023-02-19T10:58:42.493Z,100279.59
2023-02-19T11:01:22.266Z,100278.91
2023-02-19T11:03:54.577Z,100282.23
2023-02-19T11:06:29.556Z,100286.64
2023-02-19T11:09:01.787Z,100287.67
2023-02-19T11:11:35.174Z,100291.67
2023-02-19T11:14:15.214Z,100292.23
2023-02-19T11:16:49.033Z,100297.09
2023-02-19T11:19:43.590Z,100297.95
2023-02-19T11:22:33.142Z,100295.05
2023-02-19T11:25:09.196Z,100293.48
2023-02-19T11:27:56.617Z,100298.67
2023-02-19T11:30:41.186Z,100303.16
2023-02-19T11:33:44.279Z,100298.07
2023-02-19T11:36:33.539Z,100296.96
2023-02-19T11:39:20.645Z,100297.14
2023-02-19T11:42:17.491Z,100301.28
2023-02-19T11:45:01.956Z,100297.98
2023-02-19T11:48:14.188Z,100299.02
2023-02-19T11:50:54.161Z,100303.30
2023-02-19T11:53:29.369Z,100305.75
2023-02-19T11:56:21.894Z,100308.52
2023-02-19T11:59:14.031Z,100305.95
2023-02-19T12:02:16.687Z,100306.04
2023-02-19T12:05:01.694Z,100309.98
2023-02-19T12:08:05.889Z,100313.10
2023-02-19T12:10:52.438Z,100323.60
2023-02-19T12:13:32.919Z,100332.05
2023-02-19T12:16:21.281Z,100337.95
2023-02-19T12:19:10.228Z,100346.04
2023-02-19T12:21:56.418Z,100350.13
2023-02-19T12:24:43.682Z,100349.59
2023-02-19T12:27:28.045Z,100350.52
2023-02-19T12:30:17.200Z,100353.45
2023-02-19T12:33:15.225Z,100357.27
2023-02-19T12:36:04.719Z,100360.59
2023-02-19T12:38:44.243Z,100357.58
2023-02-19T12:41:35.644Z,100361.17
2023-02-19T12:44:14.750Z,100350.34
2023-02-19T12:46:51.586Z,100362.54
2023-02-19T12:49:27.519Z,100366.03
2023-02-19T12:52:01.545Z,100371.77
2023-02-19T12:55:06.943Z,100359.95
2023-02-19T12:57:49.486Z,100364.25
2023-02-19T13:00:32.477Z,100371.58
2023-02-19T13:03:09.016Z,100378.90
2023-02-19T13:05:48.077Z,100378.71
2023-02-19T13:08:25.856Z,100391.77
2023-02-19T13:11:03.763Z,100395.16
2023-02-19T13:13:42.014Z,100396.29
2023-02-19T13:16:21.886Z,100401.02
2023-02-19T13:19:02.884Z,100397.71
2023-02-19T13:22:03.268Z,100403.98
2023-02-19T13:24:42.341Z,100406.04
2023-02-19T13:27:50.544Z,100399.91
2023-02-19T13:30:56.229Z,100403.77
2023-02-19T13:33:42.231Z,100407.27
2023-02-19T13:36:28.476Z,100400.11
2023-02-19T13:39:09.959Z,100402.02
2023-02-19T13:42:00.252Z,100404.83
2023-02-19T13:44:34.666Z,100401.81
2023-02-19T13:47:30.360Z,100407.59
2023-02-19T13:50:12.343Z,100405.70
2023-02-19T13:52:57.974Z,100407.89
2023-02-19T13:55:51.961Z,100409.04
2023-02-19T13:58:53.149Z,100418.14
2023-02-19T14:02:24.049Z,100421.52
2023-02-19T14:05:46.956Z,100428.01
2023-02-19T14:12:15.706Z,100423.54
2023-02-19T14:16:19.833Z,100428.42
2023-02-19T14:18:57.015Z,100435.98
2023-02-19T14:21:39.332Z,100443.77
2023-02-19T14:24:17.949Z,100445.89
2023-02-19T14:30:27.096Z,100464.77
2023-02-19T14:33:11.069Z,100475.58
2023-02-19T14:36:10.800Z,100473.54
2023-02-19T14:42:53.112Z,100483.39
2023-02-19T14:46:12.613Z,100486.24
2023-02-19T14:49:36.780Z,100486.63
2023-02-19T14:52:57.795Z,100482.17
2023-02-19T15:00:02.561Z,100506.40
2023-02-19T15:07:17.524Z,100520.29
2023-02-19T15:22:51.173Z,100534.91
2023-02-19T15:26:15.791Z,100531.89
2023-02-19T15:29:33.260Z,100529.17
2023-02-19T15:32:36.016Z,100544.21
2023-02-19T15:35:28.002Z,100556.95
2023-02-19T15:38:12.552Z,100557.44
2023-02-19T15:40:49.558Z,100565.45
2023-02-19T15:43:58.369Z,100572.54
2023-02-19T15:46:48.924Z,100578.20
2023-02-19T15:49:31.129Z,100585.05
2023-02-19T15:52:17.867Z,100579.98
2023-02-19T15:55:15.476Z,100590.33
2023-02-19T15:57:55.844Z,100593.23
2023-02-19T16:00:53.773Z,100597.70
2023-02-19T16:03:42.031Z,100601.81
2023-02-19T16:06:29.187Z,100608.83
2023-02-19T16:09:10.461Z,100615.19
2023-02-19T16:11:49.809Z,100626.22
2023-02-19T16:14:29.392Z,100622.90
2023-02-19T16:17:07.459Z,100633.27
2023-02-19T16:19:49.381Z,100629.23
2023-02-19T16:22:22.480Z,100628.66
2023-02-19T16:24:57.274Z,100628.05
2023-02-19T16:27:35.650Z,100632.11
2023-02-19T16:30:30.863Z,100635.84
2023-02-19T16:36:41.820Z,100650.48
2023-02-19T16:39:28.986Z,100649.91
2023-02-19T16:42:25.126Z,100658.50
2023-02-19T16:45:58.470Z,100667.39
2023-02-19T16:49:11.226Z,100666.41
2023-02-19T16:52:23.042Z,100664.48
2023-02-19T16:54:56.575Z,100671.55
2023-02-19T16:57:53.546Z,100676.08
2023-02-19T17:00:38.919Z,100693.54
2023-02-19T17:03:13.127Z,100687.45
2023-02-19T17:05:44.058Z,100693.11
2023-02-19T17:08:31.407Z,100701.18
2023-02-19T17:11:03.087Z,100713.17
2023-02-19T17:13:33.904Z,100718.26
2023-02-19T17:16:04.724Z,100721.77
2023-02-19T17:18:45.604Z,100724.59
2023-02-19T17:21:21.031Z,100725.84
2023-02-19T17:23:52.119Z,100727.27
2023-02-19T17:26:25.440Z,100724.88
2023-02-19T17:28:58.207Z,100738.26
2023-02-19T17:31:29.250Z,100738.63
2023-02-19T17:34:00.310Z,100730.94
2023-02-19T17:36:32.920Z,100727.97
2023-02-19T17:39:14.678Z,100733.65
2023-02-19T17:41:45.316Z,100742.27
2023-02-19T17:44:17.724Z,100744.67
2023-02-19T17:46:49.806Z,100748.81
2023-02-19T17:49:20.342Z,100753.64
2023-02-19T17:51:50.853Z,100758.14
2023-02-19T17:54:21.192Z,100756.40
2023-02-19T17:56:51.555Z,100765.40
2023-02-19T17:59:22.025Z,100766.60
2023-02-19T18:01:54.934Z,100771.95
2023-02-19T18:04:27.856Z,100776.10
2023-02-19T18:06:58.500Z,100781.48
2023-02-19T18:09:29.008Z,100782.83
2023-02-19T18:11:59.329Z,100781.74
2023-02-19T18:14:31.405Z,100789.27
2023-02-19T18:17:02.620Z,100790.61
2023-02-19T18:19:33.025Z,100795.45
2023-02-19T18:22:06.660Z,100792.02
2023-02-19T18:24:38.808Z,100794.45
2023-02-19T18:27:09.407Z,100798.77
2023-02-19T18:29:39.842Z,100802.42
2023-02-19T18:32:10.477Z,100804.98
2023-02-19T18:34:40.961Z,100813.62
2023-02-19T18:37:11.309Z,100813.61
2023-02-19T18:39:41.716Z,100821.52
2023-02-19T18:42:12.641Z,100822.01
2023-02-19T18:44:43.611Z,100824.55
2023-02-19T18:47:14.182Z,100829.84
2023-02-19T18:49:47.948Z,100825.44
2023-02-19T18:52:20.359Z,100830.81
2023-02-19T18:54:52.378Z,100837.78
2023-02-19T18:57:24.232Z,100839.56
2023-02-19T18:59:55.031Z,100845.15
2023-02-19T19:02:29.741Z,100846.27
2023-02-19T19:05:02.378Z,100842.35
2023-02-19T19:07:32.895Z,100841.20
2023-02-19T19:10:03.230Z,100841.23
2023-02-19T19:12:33.592Z,100845.60
2023-02-19T19:15:04.206Z,100844.80
2023-02-19T19:17:35.057Z,100846.55
2023-02-19T19:20:06.649Z,100845.07
2023-02-19T19:22:37.123Z,100850.31
2023-02-19T19:25:09.261Z,100857.63
2023-02-19T19:27:39.681Z,100855.77
2023-02-19T19:30:11.544Z,100857.05
2023-02-19T19:32:42.223Z,100861.46
2023-02-19T19:35:13.133Z,100856.02
2023-02-19T19:37:43.657Z,100863.39
2023-02-19T19:40:16.692Z,100869.35
2023-02-19T19:42:47.888Z,100874.46
2023-02-19T19:45:21.458Z,100884.41
2023-02-19T19:47:53.103Z,100875.69
2023-02-19T19:50:23.582Z,100879.21
2023-02-19T19:52:54.819Z,100879.08
2023-02-19T19:55:27.491Z,100879.92
2023-02-19T19:57:57.827Z,100886.15
2023-02-19T20:00:29.498Z,100891.79
2023-02-19T20:03:02.869Z,100895.20
2023-02-19T20:05:33.987Z,100901.25
2023-02-19T20:08:04.736Z,100902.94
2023-02-19T20:10:38.881Z,100900.84
2023-02-19T20:13:09.801Z,100903.71
2023-02-19T20:15:40.503Z,100903.38
2023-02-19T20:18:11.037Z,100903.34
2023-02-19T20:20:41.908Z,100906.89
2023-02-19T20:23:15.253Z,100902.52
2023-02-19T20:25:46.011Z,100906.61
2023-02-19T20:28:16.581Z,100905.38
2023-02-19T20:30:46.928Z,100907.61
2023-02-19T20:33:17.602Z,100909.27
2023-02-19T20:35:47.960Z,100907.59
2023-02-19T20:38:18.689Z,100905.48
2023-02-19T20:40:49.366Z,100913.80
2023-02-19T20:43:21.095Z,100913.65
2023-02-19T20:45:51.489Z,100916.43
2023-02-19T20:48:23.132Z,100919.52
2023-02-19T20:50:59.270Z,100921.00
2023-02-19T20:53:32.055Z,100929.77
2023-02-19T20:56:02.528Z,100936.61
2023-02-19T20:58:32.843Z,100939.50
2023-02-19T21:01:03.238Z,100938.41
2023-02-19T21:03:35.336Z,100939.93
2023-02-19T21:06:05.990Z,100939.21
2023-02-19T21:08:38.566Z,100942.95
2023-02-19T21:11:09.330Z,100947.93
2023-02-19T21:13:39.978Z,100944.64
2023-02-19T21:16:11.294Z,100945.13
2023-02-19T21:18:41.941Z,100951.52
2023-02-19T21:21:12.349Z,100958.08
2023-02-19T21:23:43.431Z,100967.59
2023-02-19T21:26:14.471Z,100969.80
2023-02-19T21:28:45.050Z,100974.23
2023-02-19T21:31:15.482Z,100980.83
2023-02-19T21:33:46.409Z,100979.92
2023-02-19T21:36:19.151Z,100984.02
2023-02-19T21:38:50.055Z,100979.50
2023-02-19T21:41:20.516Z,100984.30
2023-02-19T21:43:50.898Z,100985.70
2023-02-19T21:46:22.150Z,100985.98
2023-02-19T21:48:54.958Z,100987.59
2023-02-19T21:51:37.972Z,100988.98
2023-02-19T21:54:12.294Z,100989.15
2023-02-19T21:56:42.722Z,100995.69
2023-02-19T21:59:13.245Z,101002.75
2023-02-19T22:01:44.600Z,101010.92
2023-02-19T22:04:16.738Z,101011.71
2023-02-19T22:06:47.638Z,101011.47
2023-02-19T22:09:20.667Z,101014.48
2023-02-19T22:11:51.304Z,101012.31
2023-02-19T22:14:21.922Z,101013.44
2023-02-19T22:16:52.802Z,101014.19
2023-02-19T22:19:23.242Z,101017.56
2023-02-19T22:21:53.621Z,101019.43
2023-02-19T22:24:24.342Z,101022.31
2023-02-19T22:26:58.557Z,101022.76
2023-02-19T22:29:31.238Z,101025.58
2023-02-19T22:32:01.797Z,101020.14
2023-02-19T22:34:32.427Z,101021.60
2023-02-19T22:37:02.829Z,101021.70
2023-02-19T22:39:34.299Z,101023.18
2023-02-19T22:42:05.137Z,101020.67
2023-02-19T22:44:37.834Z,101020.44
2023-02-19T22:47:10.311Z,101020.66
2023-02-19T22:49:43.848Z,101024.61
2023-02-19T22:52:17.804Z,101022.98
2023-02-19T22:54:48.257Z,101028.96
2023-02-19T22:57:19.146Z,101027.04
2023-02-19T22:59:49.540Z,101022.55
2023-02-19T23:02:20.365Z,101019.02
2023-02-19T23:04:51.049Z,101026.35
2023-02-19T23:07:21.488Z,101024.90
2023-02-19T23:09:51.991Z,101018.80
2023-02-19T23:12:22.742Z,101017.38
2023-02-19T23:14:55.182Z,101020.23
2023-02-19T23:17:25.754Z,101016.56
2023-02-19T23:19:56.606Z,101022.05
2023-02-19T23:22:27.478Z,101024.77
2023-02-19T23:24:59.572Z,101025.91
2023-02-19T23:27:30.279Z,101030.18
2023-02-19T23:30:00.791Z,101024.45
2023-02-19T23:32:31.121Z,101022.34
2023-02-19T23:35:01.538Z,101017.95
2023-02-19T23:37:32.143Z,101009.30
2023-02-19T23:40:02.800Z,101003.02
2023-02-19T23:42:33.542Z,101004.85
2023-02-19T23:45:04.554Z,101000.88
2023-02-19T23:47:34.988Z,101000.34
2023-02-19T23:50:05.775Z,101001.91
2023-02-19T23:52:36.603Z,101002.13
2023-02-19T23:55:08.338Z,101006.33
2023-02-19T23:57:38.663Z,101002.71
